sensor_id;sensor_type;location;lat;lon;timestamp;P1;durP1;ratioP1;P2;durP2;ratioP2
64712;SDS011;51140;45.340;5.980;2022-08-30T00:00:21;7.00;;;3.30;;
64712;SDS011;51140;45.340;5.980;2022-08-30T00:03:06;8.00;;;3.70;;
64712;SDS011;51140;45.340;5.980;2022-08-30T00:05:33;8.27;;;3.47;;
64712;SDS011;51140;45.340;5.980;2022-08-30T00:07:59;6.70;;;3.60;;
64712;SDS011;51140;45.340;5.980;2022-08-30T00:10:25;6.65;;;3.90;;
64712;SDS011;51140;45.340;5.980;2022-08-30T00:12:55;6.60;;;3.70;;
64712;SDS011;51140;45.340;5.980;2022-08-30T00:15:22;7.10;;;3.60;;
64712;SDS011;51140;45.340;5.980;2022-08-30T00:17:48;5.80;;;3.58;;
64712;SDS011;51140;45.340;5.980;2022-08-30T00:20:18;6.05;;;3.50;;
64712;SDS011;51140;45.340;5.980;2022-08-30T00:22:47;6.88;;;3.42;;
64712;SDS011;51140;45.340;5.980;2022-08-30T00:25:13;7.70;;;3.50;;
64712;SDS011;51140;45.340;5.980;2022-08-30T00:27:39;6.00;;;3.30;;
64712;SDS011;51140;45.340;5.980;2022-08-30T00:30:06;5.95;;;3.30;;
64712;SDS011;51140;45.340;5.980;2022-08-30T00:32:33;7.55;;;3.70;;
64712;SDS011;51140;45.340;5.980;2022-08-30T00:34:58;7.78;;;3.55;;
64712;SDS011;51140;45.340;5.980;2022-08-30T00:37:24;6.97;;;3.50;;
64712;SDS011;51140;45.340;5.980;2022-08-30T00:39:49;7.90;;;4.53;;
64712;SDS011;51140;45.340;5.980;2022-08-30T00:42:15;11.82;;;4.60;;
64712;SDS011;51140;45.340;5.980;2022-08-30T00:44:42;10.15;;;3.85;;
64712;SDS011;51140;45.340;5.980;2022-08-30T00:47:09;8.40;;;4.10;;
64712;SDS011;51140;45.340;5.980;2022-08-30T00:49:35;6.47;;;3.70;;
64712;SDS011;51140;45.340;5.980;2022-08-30T00:52:03;6.63;;;3.67;;
64712;SDS011;51140;45.340;5.980;2022-08-30T00:54:31;9.05;;;3.50;;
64712;SDS011;51140;45.340;5.980;2022-08-30T00:57:00;7.93;;;3.22;;
64712;SDS011;51140;45.340;5.980;2022-08-30T00:59:26;7.25;;;3.22;;
64712;SDS011;51140;45.340;5.980;2022-08-30T01:01:52;7.15;;;3.53;;
64712;SDS011;51140;45.340;5.980;2022-08-30T01:04:18;6.03;;;3.35;;
64712;SDS011;51140;45.340;5.980;2022-08-30T01:06:48;6.85;;;3.80;;
64712;SDS011;51140;45.340;5.980;2022-08-30T01:09:13;6.15;;;3.55;;
64712;SDS011;51140;45.340;5.980;2022-08-30T01:11:40;8.68;;;3.60;;
64712;SDS011;51140;45.340;5.980;2022-08-30T01:14:08;6.35;;;3.78;;
64712;SDS011;51140;45.340;5.980;2022-08-30T01:16:35;6.65;;;3.28;;
64712;SDS011;51140;45.340;5.980;2022-08-30T01:19:03;6.20;;;3.30;;
64712;SDS011;51140;45.340;5.980;2022-08-30T01:21:37;7.80;;;3.90;;
64712;SDS011;51140;45.340;5.980;2022-08-30T01:24:06;7.93;;;3.63;;
64712;SDS011;51140;45.340;5.980;2022-08-30T01:26:33;6.45;;;3.63;;
64712;SDS011;51140;45.340;5.980;2022-08-30T01:29:03;7.38;;;3.63;;
64712;SDS011;51140;45.340;5.980;2022-08-30T01:31:34;7.30;;;3.80;;
64712;SDS011;51140;45.340;5.980;2022-08-30T01:34:01;6.95;;;3.80;;
64712;SDS011;51140;45.340;5.980;2022-08-30T01:36:29;7.72;;;3.80;;
64712;SDS011;51140;45.340;5.980;2022-08-30T01:38:56;8.23;;;3.97;;
64712;SDS011;51140;45.340;5.980;2022-08-30T01:43:53;6.47;;;3.60;;
64712;SDS011;51140;45.340;5.980;2022-08-30T01:46:21;7.78;;;3.40;;
64712;SDS011;51140;45.340;5.980;2022-08-30T01:48:49;6.30;;;3.58;;
64712;SDS011;51140;45.340;5.980;2022-08-30T01:51:17;8.38;;;3.63;;
64712;SDS011;51140;45.340;5.980;2022-08-30T01:53:43;8.50;;;3.92;;
64712;SDS011;51140;45.340;5.980;2022-08-30T01:56:10;9.23;;;4.30;;
64712;SDS011;51140;45.340;5.980;2022-08-30T01:58:36;7.75;;;3.78;;
64712;SDS011;51140;45.340;5.980;2022-08-30T02:01:03;8.23;;;4.15;;
64712;SDS011;51140;45.340;5.980;2022-08-30T02:03:30;9.10;;;3.88;;
64712;SDS011;51140;45.340;5.980;2022-08-30T02:06:05;6.38;;;3.40;;
64712;SDS011;51140;45.340;5.980;2022-08-30T02:08:33;6.80;;;3.55;;
64712;SDS011;51140;45.340;5.980;2022-08-30T02:10:59;8.68;;;4.35;;
64712;SDS011;51140;45.340;5.980;2022-08-30T02:13:25;10.73;;;4.30;;
64712;SDS011;51140;45.340;5.980;2022-08-30T02:15:51;7.20;;;4.07;;
64712;SDS011;51140;45.340;5.980;2022-08-30T02:18:18;7.63;;;3.80;;
64712;SDS011;51140;45.340;5.980;2022-08-30T02:20:44;7.57;;;3.90;;
64712;SDS011;51140;45.340;5.980;2022-08-30T02:23:09;6.68;;;3.95;;
64712;SDS011;51140;45.340;5.980;2022-08-30T02:25:35;8.57;;;4.15;;
64712;SDS011;51140;45.340;5.980;2022-08-30T02:28:00;6.88;;;3.92;;
64712;SDS011;51140;45.340;5.980;2022-08-30T02:30:26;7.90;;;3.90;;
64712;SDS011;51140;45.340;5.980;2022-08-30T02:32:51;6.53;;;3.92;;
64712;SDS011;51140;45.340;5.980;2022-08-30T02:35:17;8.85;;;4.20;;
64712;SDS011;51140;45.340;5.980;2022-08-30T02:37:42;7.88;;;4.30;;
64712;SDS011;51140;45.340;5.980;2022-08-30T02:40:08;9.98;;;4.35;;
64712;SDS011;51140;45.340;5.980;2022-08-30T02:42:34;9.90;;;4.28;;
64712;SDS011;51140;45.340;5.980;2022-08-30T02:45:00;8.02;;;3.88;;
64712;SDS011;51140;45.340;5.980;2022-08-30T02:47:25;6.40;;;4.07;;
64712;SDS011;51140;45.340;5.980;2022-08-30T02:49:51;8.43;;;4.05;;
64712;SDS011;51140;45.340;5.980;2022-08-30T02:52:16;6.57;;;3.88;;
64712;SDS011;51140;45.340;5.980;2022-08-30T02:54:43;6.38;;;3.88;;
64712;SDS011;51140;45.340;5.980;2022-08-30T02:57:09;6.53;;;3.63;;
64712;SDS011;51140;45.340;5.980;2022-08-30T02:59:35;6.20;;;3.90;;
64712;SDS011;51140;45.340;5.980;2022-08-30T03:02:05;5.85;;;3.25;;
64712;SDS011;51140;45.340;5.980;2022-08-30T03:04:31;8.98;;;4.00;;
64712;SDS011;51140;45.340;5.980;2022-08-30T03:06:56;8.43;;;3.47;;
64712;SDS011;51140;45.340;5.980;2022-08-30T03:09:23;8.05;;;5.00;;
64712;SDS011;51140;45.340;5.980;2022-08-30T03:11:48;7.10;;;3.90;;
64712;SDS011;51140;45.340;5.980;2022-08-30T03:14:13;7.22;;;4.03;;
64712;SDS011;51140;45.340;5.980;2022-08-30T03:16:39;7.97;;;4.05;;
64712;SDS011;51140;45.340;5.980;2022-08-30T03:19:05;9.90;;;3.90;;
64712;SDS011;51140;45.340;5.980;2022-08-30T03:21:30;6.68;;;3.75;;
64712;SDS011;51140;45.340;5.980;2022-08-30T03:23:55;7.53;;;4.18;;
64712;SDS011;51140;45.340;5.980;2022-08-30T03:26:21;8.32;;;4.15;;
64712;SDS011;51140;45.340;5.980;2022-08-30T03:28:46;7.07;;;3.88;;
64712;SDS011;51140;45.340;5.980;2022-08-30T03:31:12;7.63;;;3.65;;
64712;SDS011;51140;45.340;5.980;2022-08-30T03:33:37;7.22;;;4.20;;
64712;SDS011;51140;45.340;5.980;2022-08-30T03:36:06;6.57;;;3.63;;
64712;SDS011;51140;45.340;5.980;2022-08-30T03:38:32;9.95;;;3.72;;
64712;SDS011;51140;45.340;5.980;2022-08-30T03:40:57;6.53;;;3.88;;
64712;SDS011;51140;45.340;5.980;2022-08-30T03:43:23;6.90;;;3.58;;
64712;SDS011;51140;45.340;5.980;2022-08-30T03:45:49;7.25;;;3.65;;
64712;SDS011;51140;45.340;5.980;2022-08-30T03:48:14;8.88;;;4.15;;
64712;SDS011;51140;45.340;5.980;2022-08-30T03:50:40;13.60;;;4.30;;
64712;SDS011;51140;45.340;5.980;2022-08-30T03:53:05;6.78;;;3.88;;
64712;SDS011;51140;45.340;5.980;2022-08-30T03:55:31;9.35;;;4.75;;
64712;SDS011;51140;45.340;5.980;2022-08-30T03:57:57;7.43;;;4.30;;
64712;SDS011;51140;45.340;5.980;2022-08-30T04:00:22;6.25;;;3.75;;
64712;SDS011;51140;45.340;5.980;2022-08-30T04:02:48;8.60;;;3.67;;
64712;SDS011;51140;45.340;5.980;2022-08-30T04:05:13;7.22;;;3.65;;
64712;SDS011;51140;45.340;5.980;2022-08-30T04:07:38;6.30;;;3.50;;
64712;SDS011;51140;45.340;5.980;2022-08-30T04:10:05;6.65;;;4.10;;
64712;SDS011;51140;45.340;5.980;2022-08-30T04:12:31;8.52;;;3.65;;
64712;SDS011;51140;45.340;5.980;2022-08-30T04:14:57;6.10;;;3.40;;
64712;SDS011;51140;45.340;5.980;2022-08-30T04:17:22;7.50;;;3.70;;
64712;SDS011;51140;45.340;5.980;2022-08-30T04:19:48;6.78;;;3.47;;
64712;SDS011;51140;45.340;5.980;2022-08-30T04:22:13;8.05;;;3.70;;
64712;SDS011;51140;45.340;5.980;2022-08-30T04:24:39;10.02;;;3.90;;
64712;SDS011;51140;45.340;5.980;2022-08-30T04:27:05;7.43;;;4.10;;
64712;SDS011;51140;45.340;5.980;2022-08-30T04:29:31;8.57;;;4.40;;
64712;SDS011;51140;45.340;5.980;2022-08-30T04:31:57;7.70;;;4.43;;
64712;SDS011;51140;45.340;5.980;2022-08-30T04:34:23;7.40;;;4.15;;
64712;SDS011;51140;45.340;5.980;2022-08-30T04:36:48;6.78;;;4.00;;
64712;SDS011;51140;45.340;5.980;2022-08-30T04:39:14;7.22;;;3.65;;
64712;SDS011;51140;45.340;5.980;2022-08-30T04:41:41;7.43;;;4.07;;
64712;SDS011;51140;45.340;5.980;2022-08-30T04:44:06;8.02;;;3.72;;
64712;SDS011;51140;45.340;5.980;2022-08-30T04:46:32;6.75;;;3.90;;
64712;SDS011;51140;45.340;5.980;2022-08-30T04:49:00;7.10;;;3.70;;
64712;SDS011;51140;45.340;5.980;2022-08-30T04:51:25;8.10;;;3.70;;
64712;SDS011;51140;45.340;5.980;2022-08-30T04:53:51;8.88;;;4.97;;
64712;SDS011;51140;45.340;5.980;2022-08-30T04:56:18;10.23;;;5.10;;
64712;SDS011;51140;45.340;5.980;2022-08-30T04:58:49;9.27;;;5.60;;
64712;SDS011;51140;45.340;5.980;2022-08-30T05:01:17;10.23;;;5.53;;
64712;SDS011;51140;45.340;5.980;2022-08-30T05:03:47;8.57;;;5.07;;
64712;SDS011;51140;45.340;5.980;2022-08-30T05:06:13;9.93;;;5.10;;
64712;SDS011;51140;45.340;5.980;2022-08-30T05:08:39;13.43;;;5.45;;
64712;SDS011;51140;45.340;5.980;2022-08-30T05:11:05;9.25;;;5.50;;
64712;SDS011;51140;45.340;5.980;2022-08-30T05:13:31;9.48;;;5.95;;
64712;SDS011;51140;45.340;5.980;2022-08-30T05:15:58;8.30;;;4.82;;
64712;SDS011;51140;45.340;5.980;2022-08-30T05:18:24;9.18;;;5.03;;
64712;SDS011;51140;45.340;5.980;2022-08-30T05:20:58;8.02;;;4.50;;
64712;SDS011;51140;45.340;5.980;2022-08-30T05:23:29;7.50;;;4.30;;
64712;SDS011;51140;45.340;5.980;2022-08-30T05:25:54;9.27;;;4.50;;
64712;SDS011;51140;45.340;5.980;2022-08-30T05:28:20;6.65;;;3.85;;
64712;SDS011;51140;45.340;5.980;2022-08-30T05:30:45;7.22;;;3.97;;
64712;SDS011;51140;45.340;5.980;2022-08-30T05:33:11;6.50;;;3.97;;
64712;SDS011;51140;45.340;5.980;2022-08-30T05:35:37;10.43;;;4.30;;
64712;SDS011;51140;45.340;5.980;2022-08-30T05:38:02;7.50;;;4.00;;
64712;SDS011;51140;45.340;5.980;2022-08-30T05:40:28;9.68;;;4.18;;
64712;SDS011;51140;45.340;5.980;2022-08-30T05:42:53;7.60;;;4.30;;
64712;SDS011;51140;45.340;5.980;2022-08-30T05:45:19;7.60;;;4.32;;
64712;SDS011;51140;45.340;5.980;2022-08-30T05:47:44;9.80;;;4.10;;
64712;SDS011;51140;45.340;5.980;2022-08-30T05:50:11;6.45;;;3.78;;
64712;SDS011;51140;45.340;5.980;2022-08-30T05:52:38;6.80;;;3.92;;
64712;SDS011;51140;45.340;5.980;2022-08-30T05:55:04;7.00;;;4.07;;
64712;SDS011;51140;45.340;5.980;2022-08-30T05:57:32;6.18;;;3.97;;
64712;SDS011;51140;45.340;5.980;2022-08-30T06:00:06;10.23;;;4.22;;
64712;SDS011;51140;45.340;5.980;2022-08-30T06:02:34;7.25;;;3.92;;
64712;SDS011;51140;45.340;5.980;2022-08-30T06:05:00;8.27;;;4.68;;
64712;SDS011;51140;45.340;5.980;2022-08-30T06:07:26;7.65;;;4.60;;
64712;SDS011;51140;45.340;5.980;2022-08-30T06:09:52;13.55;;;5.25;;
64712;SDS011;51140;45.340;5.980;2022-08-30T06:12:17;12.20;;;5.63;;
64712;SDS011;51140;45.340;5.980;2022-08-30T06:14:43;11.27;;;5.78;;
64712;SDS011;51140;45.340;5.980;2022-08-30T06:17:08;11.27;;;5.70;;
64712;SDS011;51140;45.340;5.980;2022-08-30T06:19:34;13.32;;;6.35;;
64712;SDS011;51140;45.340;5.980;2022-08-30T06:22:00;9.80;;;5.57;;
64712;SDS011;51140;45.340;5.980;2022-08-30T06:24:25;9.13;;;4.97;;
64712;SDS011;51140;45.340;5.980;2022-08-30T06:26:50;10.63;;;5.88;;
64712;SDS011;51140;45.340;5.980;2022-08-30T06:29:17;14.18;;;5.55;;
64712;SDS011;51140;45.340;5.980;2022-08-30T06:31:43;14.00;;;6.15;;
64712;SDS011;51140;45.340;5.980;2022-08-30T06:34:09;11.82;;;5.53;;
64712;SDS011;51140;45.340;5.980;2022-08-30T06:36:35;14.30;;;6.55;;
64712;SDS011;51140;45.340;5.980;2022-08-30T06:39:01;8.90;;;5.60;;
64712;SDS011;51140;45.340;5.980;2022-08-30T06:41:28;12.65;;;5.38;;
64712;SDS011;51140;45.340;5.980;2022-08-30T06:43:55;7.53;;;4.72;;
64712;SDS011;51140;45.340;5.980;2022-08-30T06:46:22;6.82;;;4.03;;
64712;SDS011;51140;45.340;5.980;2022-08-30T06:48:49;5.85;;;3.65;;
64712;SDS011;51140;45.340;5.980;2022-08-30T06:51:19;9.90;;;5.60;;
64712;SDS011;51140;45.340;5.980;2022-08-30T06:53:45;12.55;;;5.43;;
64712;SDS011;51140;45.340;5.980;2022-08-30T06:56:11;12.88;;;5.85;;
64712;SDS011;51140;45.340;5.980;2022-08-30T06:58:37;10.30;;;5.10;;
64712;SDS011;51140;45.340;5.980;2022-08-30T07:01:03;6.95;;;4.32;;
64712;SDS011;51140;45.340;5.980;2022-08-30T07:03:33;7.47;;;4.28;;
64712;SDS011;51140;45.340;5.980;2022-08-30T07:05:59;7.85;;;4.60;;
64712;SDS011;51140;45.340;5.980;2022-08-30T07:08:24;9.10;;;4.85;;
64712;SDS011;51140;45.340;5.980;2022-08-30T07:10:51;8.73;;;4.82;;
64712;SDS011;51140;45.340;5.980;2022-08-30T07:13:18;8.60;;;5.00;;
64712;SDS011;51140;45.340;5.980;2022-08-30T07:15:45;8.32;;;4.95;;
64712;SDS011;51140;45.340;5.980;2022-08-30T07:18:10;7.82;;;4.25;;
64712;SDS011;51140;45.340;5.980;2022-08-30T07:20:55;8.38;;;4.28;;
64712;SDS011;51140;45.340;5.980;2022-08-30T07:23:21;9.18;;;5.03;;
64712;SDS011;51140;45.340;5.980;2022-08-30T07:25:47;10.00;;;5.72;;
64712;SDS011;51140;45.340;5.980;2022-08-30T07:28:13;9.93;;;5.13;;
64712;SDS011;51140;45.340;5.980;2022-08-30T07:30:39;9.57;;;5.63;;
64712;SDS011;51140;45.340;5.980;2022-08-30T07:33:05;9.25;;;5.18;;
64712;SDS011;51140;45.340;5.980;2022-08-30T07:35:30;13.30;;;6.65;;
64712;SDS011;51140;45.340;5.980;2022-08-30T07:37:56;15.05;;;7.10;;
64712;SDS011;51140;45.340;5.980;2022-08-30T07:40:22;13.25;;;7.38;;
64712;SDS011;51140;45.340;5.980;2022-08-30T07:42:47;18.48;;;7.13;;
64712;SDS011;51140;45.340;5.980;2022-08-30T07:45:13;12.90;;;6.47;;
64712;SDS011;51140;45.340;5.980;2022-08-30T07:47:39;17.27;;;6.93;;
64712;SDS011;51140;45.340;5.980;2022-08-30T07:50:05;11.80;;;7.18;;
64712;SDS011;51140;45.340;5.980;2022-08-30T07:52:31;12.50;;;6.20;;
64712;SDS011;51140;45.340;5.980;2022-08-30T07:54:57;15.65;;;6.50;;
64712;SDS011;51140;45.340;5.980;2022-08-30T07:57:23;11.07;;;6.13;;
64712;SDS011;51140;45.340;5.980;2022-08-30T07:59:49;14.65;;;5.80;;
64712;SDS011;51140;45.340;5.980;2022-08-30T08:02:14;10.82;;;5.65;;
64712;SDS011;51140;45.340;5.980;2022-08-30T08:04:40;13.00;;;6.03;;
64712;SDS011;51140;45.340;5.980;2022-08-30T08:07:05;14.32;;;5.57;;
64712;SDS011;51140;45.340;5.980;2022-08-30T08:09:31;11.18;;;5.03;;
64712;SDS011;51140;45.340;5.980;2022-08-30T08:11:58;11.50;;;5.13;;
64712;SDS011;51140;45.340;5.980;2022-08-30T08:14:24;12.13;;;5.40;;
64712;SDS011;51140;45.340;5.980;2022-08-30T08:16:49;21.58;;;5.40;;
64712;SDS011;51140;45.340;5.980;2022-08-30T08:19:15;12.43;;;5.43;;
64712;SDS011;51140;45.340;5.980;2022-08-30T08:21:40;11.70;;;5.55;;
64712;SDS011;51140;45.340;5.980;2022-08-30T08:24:06;12.77;;;5.63;;
64712;SDS011;51140;45.340;5.980;2022-08-30T08:26:33;12.52;;;5.18;;
64712;SDS011;51140;45.340;5.980;2022-08-30T08:29:00;13.00;;;6.03;;
64712;SDS011;51140;45.340;5.980;2022-08-30T08:31:27;15.38;;;5.82;;
64712;SDS011;51140;45.340;5.980;2022-08-30T08:33:53;12.23;;;5.95;;
64712;SDS011;51140;45.340;5.980;2022-08-30T08:36:19;12.95;;;5.20;;
64712;SDS011;51140;45.340;5.980;2022-08-30T08:38:44;14.95;;;5.85;;
64712;SDS011;51140;45.340;5.980;2022-08-30T08:43:53;13.73;;;4.95;;
64712;SDS011;51140;45.340;5.980;2022-08-30T08:46:30;11.48;;;5.10;;
64712;SDS011;51140;45.340;5.980;2022-08-30T08:49:05;11.02;;;4.72;;
64712;SDS011;51140;45.340;5.980;2022-08-30T08:51:33;11.75;;;4.28;;
64712;SDS011;51140;45.340;5.980;2022-08-30T08:54:29;10.47;;;4.40;;
64712;SDS011;51140;45.340;5.980;2022-08-30T08:57:01;13.27;;;5.13;;
64712;SDS011;51140;45.340;5.980;2022-08-30T08:59:26;7.45;;;4.50;;
64712;SDS011;51140;45.340;5.980;2022-08-30T09:01:52;8.18;;;4.18;;
64712;SDS011;51140;45.340;5.980;2022-08-30T09:04:23;10.27;;;4.78;;
64712;SDS011;51140;45.340;5.980;2022-08-30T09:09:43;7.20;;;3.92;;
64712;SDS011;51140;45.340;5.980;2022-08-30T09:12:09;10.27;;;4.07;;
64712;SDS011;51140;45.340;5.980;2022-08-30T09:14:40;7.90;;;3.92;;
64712;SDS011;51140;45.340;5.980;2022-08-30T09:17:09;6.88;;;3.78;;
64712;SDS011;51140;45.340;5.980;2022-08-30T09:28:19;6.82;;;3.83;;
64712;SDS011;51140;45.340;5.980;2022-08-30T09:31:05;7.13;;;3.55;;
64712;SDS011;51140;45.340;5.980;2022-08-30T09:33:33;7.72;;;3.90;;
64712;SDS011;51140;45.340;5.980;2022-08-30T09:39:36;7.47;;;3.70;;
64712;SDS011;51140;45.340;5.980;2022-08-30T09:42:30;6.00;;;3.58;;
64712;SDS011;51140;45.340;5.980;2022-08-30T09:44:53;6.07;;;3.30;;
64712;SDS011;51140;45.340;5.980;2022-08-30T09:47:35;6.03;;;3.25;;
64712;SDS011;51140;45.340;5.980;2022-08-30T09:50:16;5.35;;;2.90;;
64712;SDS011;51140;45.340;5.980;2022-08-30T10:01:19;9.45;;;3.42;;
64712;SDS011;51140;45.340;5.980;2022-08-30T10:03:50;8.15;;;3.22;;
64712;SDS011;51140;45.340;5.980;2022-08-30T10:06:40;6.85;;;3.25;;
64712;SDS011;51140;45.340;5.980;2022-08-30T10:20:16;7.07;;;3.22;;
64712;SDS011;51140;45.340;5.980;2022-08-30T10:31:10;6.73;;;3.43;;
64712;SDS011;51140;45.340;5.980;2022-08-30T10:33:50;5.82;;;3.10;;
64712;SDS011;51140;45.340;5.980;2022-08-30T10:36:20;5.68;;;3.20;;
64712;SDS011;51140;45.340;5.980;2022-08-30T10:38:51;5.70;;;3.20;;
64712;SDS011;51140;45.340;5.980;2022-08-30T10:49:04;6.55;;;3.53;;
64712;SDS011;51140;45.340;5.980;2022-08-30T10:51:43;6.13;;;3.42;;
64712;SDS011;51140;45.340;5.980;2022-08-30T10:54:22;7.13;;;2.80;;
64712;SDS011;51140;45.340;5.980;2022-08-30T10:56:56;7.55;;;3.50;;
64712;SDS011;51140;45.340;5.980;2022-08-30T10:59:22;7.65;;;3.33;;
64712;SDS011;51140;45.340;5.980;2022-08-30T11:07:14;6.28;;;3.83;;
64712;SDS011;51140;45.340;5.980;2022-08-30T11:09:51;11.15;;;4.70;;
64712;SDS011;51140;45.340;5.980;2022-08-30T11:12:36;6.68;;;3.63;;
64712;SDS011;51140;45.340;5.980;2022-08-30T11:15:23;7.03;;;3.90;;
64712;SDS011;51140;45.340;5.980;2022-08-30T11:18:12;7.80;;;3.30;;
64712;SDS011;51140;45.340;5.980;2022-08-30T11:20:42;9.20;;;3.35;;
64712;SDS011;51140;45.340;5.980;2022-08-30T11:25:55;5.30;;;3.30;;
64712;SDS011;51140;45.340;5.980;2022-08-30T11:34:14;8.77;;;3.85;;
64712;SDS011;51140;45.340;5.980;2022-08-30T11:44:33;6.05;;;2.85;;
64712;SDS011;51140;45.340;5.980;2022-08-30T11:47:01;6.18;;;3.10;;
64712;SDS011;51140;45.340;5.980;2022-08-30T11:50:11;5.63;;;2.92;;
64712;SDS011;51140;45.340;5.980;2022-08-30T11:55:41;9.38;;;3.30;;
64712;SDS011;51140;45.340;5.980;2022-08-30T12:00:44;5.78;;;3.25;;
64712;SDS011;51140;45.340;5.980;2022-08-30T12:10:51;5.75;;;3.15;;
64712;SDS011;51140;45.340;5.980;2022-08-30T12:16:22;5.78;;;3.20;;
64712;SDS011;51140;45.340;5.980;2022-08-30T12:19:16;5.50;;;2.97;;
64712;SDS011;51140;45.340;5.980;2022-08-30T12:21:43;8.20;;;3.17;;
64712;SDS011;51140;45.340;5.980;2022-08-30T12:26:50;6.35;;;2.95;;
64712;SDS011;51140;45.340;5.980;2022-08-30T12:29:23;6.47;;;3.08;;
64712;SDS011;51140;45.340;5.980;2022-08-30T12:31:59;5.80;;;2.85;;
64712;SDS011;51140;45.340;5.980;2022-08-30T12:34:28;7.68;;;2.90;;
64712;SDS011;51140;45.340;5.980;2022-08-30T12:39:41;7.85;;;3.58;;
64712;SDS011;51140;45.340;5.980;2022-08-30T12:44:46;6.50;;;3.20;;
64712;SDS011;51140;45.340;5.980;2022-08-30T12:47:16;6.65;;;3.10;;
64712;SDS011;51140;45.340;5.980;2022-08-30T12:49:44;7.45;;;3.50;;
64712;SDS011;51140;45.340;5.980;2022-08-30T12:52:18;7.30;;;3.67;;
64712;SDS011;51140;45.340;5.980;2022-08-30T12:54:47;5.97;;;3.30;;
64712;SDS011;51140;45.340;5.980;2022-08-30T12:57:13;6.97;;;3.42;;
64712;SDS011;51140;45.340;5.980;2022-08-30T12:59:59;7.25;;;3.25;;
64712;SDS011;51140;45.340;5.980;2022-08-30T13:59:45;8.55;;;3.70;;
64712;SDS011;51140;45.340;5.980;2022-08-30T14:02:10;7.32;;;3.25;;
64712;SDS011;51140;45.340;5.980;2022-08-30T14:04:36;8.63;;;4.00;;
64712;SDS011;51140;45.340;5.980;2022-08-30T14:07:01;8.50;;;4.32;;
64712;SDS011;51140;45.340;5.980;2022-08-30T14:09:26;18.08;;;4.60;;
64712;SDS011;51140;45.340;5.980;2022-08-30T14:11:52;10.63;;;4.95;;
64712;SDS011;51140;45.340;5.980;2022-08-30T14:14:17;8.93;;;5.00;;
64712;SDS011;51140;45.340;5.980;2022-08-30T14:16:43;8.65;;;4.38;;
64712;SDS011;51140;45.340;5.980;2022-08-30T14:19:10;9.38;;;5.07;;
64712;SDS011;51140;45.340;5.980;2022-08-30T14:21:38;9.48;;;4.78;;
64712;SDS011;51140;45.340;5.980;2022-08-30T14:24:03;10.55;;;4.68;;
64712;SDS011;51140;45.340;5.980;2022-08-30T14:26:40;8.48;;;4.88;;
64712;SDS011;51140;45.340;5.980;2022-08-30T14:29:10;9.05;;;4.78;;
64712;SDS011;51140;45.340;5.980;2022-08-30T14:31:37;7.00;;;4.28;;
64712;SDS011;51140;45.340;5.980;2022-08-30T14:34:04;6.63;;;2.97;;
64712;SDS011;51140;45.340;5.980;2022-08-30T14:36:30;7.05;;;3.22;;
64712;SDS011;51140;45.340;5.980;2022-08-30T14:38:57;6.63;;;2.83;;
64712;SDS011;51140;45.340;5.980;2022-08-30T14:41:22;7.10;;;3.10;;
64712;SDS011;51140;45.340;5.980;2022-08-30T14:43:49;6.22;;;2.70;;
64712;SDS011;51140;45.340;5.980;2022-08-30T14:46:15;8.35;;;3.42;;
64712;SDS011;51140;45.340;5.980;2022-08-30T14:48:40;6.68;;;3.63;;
64712;SDS011;51140;45.340;5.980;2022-08-30T14:51:13;5.95;;;3.47;;
64712;SDS011;51140;45.340;5.980;2022-08-30T14:53:41;5.90;;;3.33;;
64712;SDS011;51140;45.340;5.980;2022-08-30T14:56:08;6.35;;;3.58;;
64712;SDS011;51140;45.340;5.980;2022-08-30T14:58:35;7.97;;;3.45;;
64712;SDS011;51140;45.340;5.980;2022-08-30T15:01:01;5.70;;;3.30;;
64712;SDS011;51140;45.340;5.980;2022-08-30T15:03:29;5.22;;;2.90;;
64712;SDS011;51140;45.340;5.980;2022-08-30T15:05:54;5.63;;;2.53;;
64712;SDS011;51140;45.340;5.980;2022-08-30T15:08:20;5.32;;;3.17;;
64712;SDS011;51140;45.340;5.980;2022-08-30T15:10:45;5.82;;;3.40;;
64712;SDS011;51140;45.340;5.980;2022-08-30T15:13:11;6.63;;;3.60;;
64712;SDS011;51140;45.340;5.980;2022-08-30T15:15:36;7.95;;;3.63;;
64712;SDS011;51140;45.340;5.980;2022-08-30T15:18:02;7.20;;;3.35;;
64712;SDS011;51140;45.340;5.980;2022-08-30T15:20:27;7.63;;;3.70;;
64712;SDS011;51140;45.340;5.980;2022-08-30T15:22:54;7.95;;;3.30;;
64712;SDS011;51140;45.340;5.980;2022-08-30T15:25:20;7.75;;;3.42;;
64712;SDS011;51140;45.340;5.980;2022-08-30T15:27:45;6.07;;;3.47;;
64712;SDS011;51140;45.340;5.980;2022-08-30T15:30:11;7.32;;;3.33;;
64712;SDS011;51140;45.340;5.980;2022-08-30T15:32:36;7.68;;;3.35;;
64712;SDS011;51140;45.340;5.980;2022-08-30T15:35:02;8.38;;;3.90;;
64712;SDS011;51140;45.340;5.980;2022-08-30T15:37:28;10.10;;;3.55;;
64712;SDS011;51140;45.340;5.980;2022-08-30T15:39:54;8.40;;;4.15;;
64712;SDS011;51140;45.340;5.980;2022-08-30T15:42:19;9.60;;;3.95;;
64712;SDS011;51140;45.340;5.980;2022-08-30T15:44:45;6.85;;;3.25;;
64712;SDS011;51140;45.340;5.980;2022-08-30T15:47:14;6.45;;;3.03;;
64712;SDS011;51140;45.340;5.980;2022-08-30T15:49:40;8.15;;;3.03;;
64712;SDS011;51140;45.340;5.980;2022-08-30T15:52:06;5.35;;;2.80;;
64712;SDS011;51140;45.340;5.980;2022-08-30T15:54:31;8.15;;;3.42;;
64712;SDS011;51140;45.340;5.980;2022-08-30T15:56:57;7.20;;;3.65;;
64712;SDS011;51140;45.340;5.980;2022-08-30T15:59:29;6.50;;;3.45;;
64712;SDS011;51140;45.340;5.980;2022-08-30T16:01:54;8.25;;;3.08;;
64712;SDS011;51140;45.340;5.980;2022-08-30T16:04:20;11.25;;;3.67;;
64712;SDS011;51140;45.340;5.980;2022-08-30T16:06:46;5.82;;;3.20;;
64712;SDS011;51140;45.340;5.980;2022-08-30T16:09:12;10.30;;;3.95;;
64712;SDS011;51140;45.340;5.980;2022-08-30T16:11:38;7.75;;;3.78;;
64712;SDS011;51140;45.340;5.980;2022-08-30T16:14:03;7.90;;;3.88;;
64712;SDS011;51140;45.340;5.980;2022-08-30T16:16:30;12.02;;;4.05;;
64712;SDS011;51140;45.340;5.980;2022-08-30T16:18:55;8.05;;;3.90;;
64712;SDS011;51140;45.340;5.980;2022-08-30T16:21:22;8.75;;;4.85;;
64712;SDS011;51140;45.340;5.980;2022-08-30T16:23:52;7.35;;;3.97;;
64712;SDS011;51140;45.340;5.980;2022-08-30T16:26:23;7.63;;;3.88;;
64712;SDS011;51140;45.340;5.980;2022-08-30T16:28:49;7.32;;;4.10;;
64712;SDS011;51140;45.340;5.980;2022-08-30T16:31:16;6.55;;;3.53;;
64712;SDS011;51140;45.340;5.980;2022-08-30T16:33:42;7.20;;;3.65;;
64712;SDS011;51140;45.340;5.980;2022-08-30T16:36:08;8.80;;;3.97;;
64712;SDS011;51140;45.340;5.980;2022-08-30T16:38:35;7.70;;;3.92;;
64712;SDS011;51140;45.340;5.980;2022-08-30T16:41:05;6.20;;;3.50;;
64712;SDS011;51140;45.340;5.980;2022-08-30T16:43:33;7.57;;;3.45;;
64712;SDS011;51140;45.340;5.980;2022-08-30T16:45:59;7.63;;;3.85;;
64712;SDS011;51140;45.340;5.980;2022-08-30T16:48:26;7.80;;;3.30;;
64712;SDS011;51140;45.340;5.980;2022-08-30T16:50:51;6.60;;;3.50;;
64712;SDS011;51140;45.340;5.980;2022-08-30T16:53:17;6.50;;;3.63;;
64712;SDS011;51140;45.340;5.980;2022-08-30T16:55:42;8.93;;;3.70;;
64712;SDS011;51140;45.340;5.980;2022-08-30T16:58:08;8.02;;;3.63;;
64712;SDS011;51140;45.340;5.980;2022-08-30T17:00:35;7.55;;;3.65;;
64712;SDS011;51140;45.340;5.980;2022-08-30T17:03:02;9.38;;;3.67;;
64712;SDS011;51140;45.340;5.980;2022-08-30T17:05:28;8.75;;;3.85;;
64712;SDS011;51140;45.340;5.980;2022-08-30T17:07:53;7.57;;;4.03;;
64712;SDS011;51140;45.340;5.980;2022-08-30T17:10:19;8.00;;;3.85;;
64712;SDS011;51140;45.340;5.980;2022-08-30T17:12:45;8.20;;;3.95;;
64712;SDS011;51140;45.340;5.980;2022-08-30T17:15:10;8.48;;;4.28;;
64712;SDS011;51140;45.340;5.980;2022-08-30T17:17:37;10.38;;;4.80;;
64712;SDS011;51140;45.340;5.980;2022-08-30T17:20:04;10.18;;;4.25;;
64712;SDS011;51140;45.340;5.980;2022-08-30T17:22:31;7.45;;;3.78;;
64712;SDS011;51140;45.340;5.980;2022-08-30T17:24:56;9.13;;;4.03;;
64712;SDS011;51140;45.340;5.980;2022-08-30T17:27:22;6.75;;;4.18;;